sensor_id;sensor_type;location;lat;lon;timestamp;temperature;humidity
59282;DHT22;45054;52.062;10.010;2023-04-03T00:01:27;1.50;99.90
59282;DHT22;45054;52.062;10.010;2023-04-03T00:03:53;1.50;99.90
59282;DHT22;45054;52.062;10.010;2023-04-03T00:06:19;1.50;99.90
59282;DHT22;45054;52.062;10.010;2023-04-03T00:08:44;1.40;99.90
59282;DHT22;45054;52.062;10.010;2023-04-03T00:11:11;1.40;99.90
59282;DHT22;45054;52.062;10.010;2023-04-03T00:13:37;1.40;99.90
59282;DHT22;45054;52.062;10.010;2023-04-03T00:16:02;1.30;99.90
59282;DHT22;45054;52.062;10.010;2023-04-03T00:18:28;1.30;99.90
59282;DHT22;45054;52.062;10.010;2023-04-03T00:20:54;1.30;99.90
59282;DHT22;45054;52.062;10.010;2023-04-03T00:23:19;1.30;99.90
59282;DHT22;45054;52.062;10.010;2023-04-03T00:25:45;1.30;99.90
59282;DHT22;45054;52.062;10.010;2023-04-03T00:28:12;1.30;99.90
59282;DHT22;45054;52.062;10.010;2023-04-03T00:30:37;1.10;99.90
59282;DHT22;45054;52.062;10.010;2023-04-03T00:33:03;1.10;99.90
59282;DHT22;45054;52.062;10.010;2023-04-03T00:35:28;1.10;99.90
59282;DHT22;45054;52.062;10.010;2023-04-03T00:37:54;1.10;99.90
59282;DHT22;45054;52.062;10.010;2023-04-03T00:40:21;1.10;99.90
59282;DHT22;45054;52.062;10.010;2023-04-03T00:42:47;1.10;99.90
59282;DHT22;45054;52.062;10.010;2023-04-03T00:47:55;1.10;99.90
59282;DHT22;45054;52.062;10.010;2023-04-03T00:50:21;1.00;99.90
59282;DHT22;45054;52.062;10.010;2023-04-03T00:52:47;0.90;99.90
59282;DHT22;45054;52.062;10.010;2023-04-03T00:55:12;0.80;99.90
59282;DHT22;45054;52.062;10.010;2023-04-03T00:57:38;0.80;99.90
59282;DHT22;45054;52.062;10.010;2023-04-03T01:00:05;0.80;99.90
59282;DHT22;45054;52.062;10.010;2023-04-03T01:02:31;0.70;99.90
59282;DHT22;45054;52.062;10.010;2023-04-03T01:04:58;0.80;99.90
59282;DHT22;45054;52.062;10.010;2023-04-03T01:07:24;0.70;99.90
59282;DHT22;45054;52.062;10.010;2023-04-03T01:09:51;0.50;99.90
59282;DHT22;45054;52.062;10.010;2023-04-03T01:12:19;0.50;99.90
59282;DHT22;45054;52.062;10.010;2023-04-03T01:14:45;0.40;99.90
59282;DHT22;45054;52.062;10.010;2023-04-03T01:17:25;0.50;99.90
59282;DHT22;45054;52.062;10.010;2023-04-03T01:19:53;0.50;99.90
59282;DHT22;45054;52.062;10.010;2023-04-03T01:22:24;0.40;99.90
59282;DHT22;45054;52.062;10.010;2023-04-03T01:24:51;0.30;99.90
59282;DHT22;45054;52.062;10.010;2023-04-03T01:27:17;0.30;99.90
59282;DHT22;45054;52.062;10.010;2023-04-03T01:29:42;0.30;99.90
59282;DHT22;45054;52.062;10.010;2023-04-03T01:32:09;0.30;99.90
59282;DHT22;45054;52.062;10.010;2023-04-03T01:34:35;0.30;99.90
59282;DHT22;45054;52.062;10.010;2023-04-03T01:37:00;0.30;99.90
59282;DHT22;45054;52.062;10.010;2023-04-03T01:39:26;0.40;99.90
59282;DHT22;45054;52.062;10.010;2023-04-03T01:41:51;0.30;99.90
59282;DHT22;45054;52.062;10.010;2023-04-03T01:44:17;0.20;99.90
59282;DHT22;45054;52.062;10.010;2023-04-03T01:46:42;0.10;99.90
59282;DHT22;45054;52.062;10.010;2023-04-03T01:49:09;0.10;99.90
59282;DHT22;45054;52.062;10.010;2023-04-03T01:51:34;0.10;99.90
59282;DHT22;45054;52.062;10.010;2023-04-03T01:54:00;0.10;99.90
59282;DHT22;45054;52.062;10.010;2023-04-03T01:56:25;0.10;99.90
59282;DHT22;45054;52.062;10.010;2023-04-03T01:58:51;0.10;99.90
59282;DHT22;45054;52.062;10.010;2023-04-03T02:01:16;0.10;99.90
59282;DHT22;45054;52.062;10.010;2023-04-03T02:03:42;0.20;99.90
59282;DHT22;45054;52.062;10.010;2023-04-03T02:06:08;0.20;99.90
59282;DHT22;45054;52.062;10.010;2023-04-03T02:08:34;0.20;99.90
59282;DHT22;45054;52.062;10.010;2023-04-03T02:10:59;0.10;99.90
59282;DHT22;45054;52.062;10.010;2023-04-03T02:13:25;0.00;99.90
59282;DHT22;45054;52.062;10.010;2023-04-03T02:15:50;0.00;99.90
59282;DHT22;45054;52.062;10.010;2023-04-03T02:18:16;0.00;99.90
59282;DHT22;45054;52.062;10.010;2023-04-03T02:20:41;-0.10;99.90
59282;DHT22;45054;52.062;10.010;2023-04-03T02:23:08;0.00;99.90
59282;DHT22;45054;52.062;10.010;2023-04-03T02:25:34;0.10;99.90
59282;DHT22;45054;52.062;10.010;2023-04-03T02:27:59;0.00;99.90
59282;DHT22;45054;52.062;10.010;2023-04-03T02:30:25;-0.10;99.90
59282;DHT22;45054;52.062;10.010;2023-04-03T02:32:50;0.00;99.90
59282;DHT22;45054;52.062;10.010;2023-04-03T02:35:16;-0.10;99.90
59282;DHT22;45054;52.062;10.010;2023-04-03T02:37:41;0.00;99.90
59282;DHT22;45054;52.062;10.010;2023-04-03T02:40:08;-0.10;99.90
59282;DHT22;45054;52.062;10.010;2023-04-03T02:42:34;-0.10;99.90
59282;DHT22;45054;52.062;10.010;2023-04-03T02:44:59;-0.10;99.90
59282;DHT22;45054;52.062;10.010;2023-04-03T02:47:25;-0.10;99.90
59282;DHT22;45054;52.062;10.010;2023-04-03T02:49:50;-0.20;99.90
59282;DHT22;45054;52.062;10.010;2023-04-03T02:52:15;-0.20;99.90
59282;DHT22;45054;52.062;10.010;2023-04-03T02:54:41;-0.20;99.90
59282;DHT22;45054;52.062;10.010;2023-04-03T02:57:08;-0.10;99.90
59282;DHT22;45054;52.062;10.010;2023-04-03T02:59:33;-0.20;99.90
59282;DHT22;45054;52.062;10.010;2023-04-03T03:01:59;-0.30;99.90
59282;DHT22;45054;52.062;10.010;2023-04-03T03:04:24;-0.30;99.90
59282;DHT22;45054;52.062;10.010;2023-04-03T03:06:49;-0.30;99.90
59282;DHT22;45054;52.062;10.010;2023-04-03T03:09:15;-0.30;99.90
59282;DHT22;45054;52.062;10.010;2023-04-03T03:11:40;-0.40;99.90
59282;DHT22;45054;52.062;10.010;2023-04-03T03:14:07;-0.40;99.90
59282;DHT22;45054;52.062;10.010;2023-04-03T03:16:33;-0.40;99.90
59282;DHT22;45054;52.062;10.010;2023-04-03T03:18:58;-0.40;99.90
59282;DHT22;45054;52.062;10.010;2023-04-03T03:21:23;-0.40;99.90
59282;DHT22;45054;52.062;10.010;2023-04-03T03:23:49;-0.30;99.90
59282;DHT22;45054;52.062;10.010;2023-04-03T03:26:14;-0.30;99.90
59282;DHT22;45054;52.062;10.010;2023-04-03T03:28:40;-0.30;99.90
59282;DHT22;45054;52.062;10.010;2023-04-03T03:31:07;-0.40;99.90
59282;DHT22;45054;52.062;10.010;2023-04-03T03:33:32;-0.40;99.90
59282;DHT22;45054;52.062;10.010;2023-04-03T03:35:58;-0.40;99.90
59282;DHT22;45054;52.062;10.010;2023-04-03T03:38:23;-0.40;99.90
59282;DHT22;45054;52.062;10.010;2023-04-03T03:40:49;-0.50;99.90
59282;DHT22;45054;52.062;10.010;2023-04-03T03:43:15;-0.50;99.90
59282;DHT22;45054;52.062;10.010;2023-04-03T03:45:40;-0.40;99.90
59282;DHT22;45054;52.062;10.010;2023-04-03T03:48:07;-0.40;99.90
59282;DHT22;45054;52.062;10.010;2023-04-03T03:50:33;-0.40;99.90
59282;DHT22;45054;52.062;10.010;2023-04-03T03:52:58;-0.40;99.90
59282;DHT22;45054;52.062;10.010;2023-04-03T03:55:24;-0.30;99.90
59282;DHT22;45054;52.062;10.010;2023-04-03T03:57:49;-0.40;99.90
59282;DHT22;45054;52.062;10.010;2023-04-03T04:00:15;-0.40;99.90
59282;DHT22;45054;52.062;10.010;2023-04-03T04:02:41;-0.40;99.90
59282;DHT22;45054;52.062;10.010;2023-04-03T04:05:08;-0.40;99.90
59282;DHT22;45054;52.062;10.010;2023-04-03T04:07:33;-0.40;99.90
59282;DHT22;45054;52.062;10.010;2023-04-03T04:09:59;-0.40;99.90
59282;DHT22;45054;52.062;10.010;2023-04-03T04:12:24;-0.50;99.90
59282;DHT22;45054;52.062;10.010;2023-04-03T04:14:49;-0.60;99.90
59282;DHT22;45054;52.062;10.010;2023-04-03T04:17:15;-0.60;99.90
59282;DHT22;45054;52.062;10.010;2023-04-03T04:19:41;-0.70;99.90
59282;DHT22;45054;52.062;10.010;2023-04-03T04:22:08;-0.70;99.90
59282;DHT22;45054;52.062;10.010;2023-04-03T04:24:33;-0.70;99.90
59282;DHT22;45054;52.062;10.010;2023-04-03T04:26:58;-0.70;99.90
59282;DHT22;45054;52.062;10.010;2023-04-03T04:29:24;-0.70;99.90
59282;DHT22;45054;52.062;10.010;2023-04-03T04:31:49;-0.70;99.90
59282;DHT22;45054;52.062;10.010;2023-04-03T04:34:15;-0.80;99.90
59282;DHT22;45054;52.062;10.010;2023-04-03T04:36:40;-0.80;99.90
59282;DHT22;45054;52.062;10.010;2023-04-03T04:39:07;-0.80;99.90
59282;DHT22;45054;52.062;10.010;2023-04-03T04:41:33;-0.90;99.90
59282;DHT22;45054;52.062;10.010;2023-04-03T04:43:58;-0.80;99.90
59282;DHT22;45054;52.062;10.010;2023-04-03T04:46:24;-0.90;99.90
59282;DHT22;45054;52.062;10.010;2023-04-03T04:48:49;-0.80;99.90
59282;DHT22;45054;52.062;10.010;2023-04-03T04:51:15;-0.80;99.90
59282;DHT22;45054;52.062;10.010;2023-04-03T04:53:40;-0.90;99.90
59282;DHT22;45054;52.062;10.010;2023-04-03T04:56:07;-0.80;99.90
59282;DHT22;45054;52.062;10.010;2023-04-03T04:58:33;-0.90;99.90
59282;DHT22;45054;52.062;10.010;2023-04-03T05:00:58;-0.90;99.90
59282;DHT22;45054;52.062;10.010;2023-04-03T05:03:24;-0.90;99.90
59282;DHT22;45054;52.062;10.010;2023-04-03T05:05:49;-0.90;99.90
59282;DHT22;45054;52.062;10.010;2023-04-03T05:08:15;-0.90;99.90
59282;DHT22;45054;52.062;10.010;2023-04-03T05:10:40;-0.90;99.90
59282;DHT22;45054;52.062;10.010;2023-04-03T05:13:07;-1.00;99.90
59282;DHT22;45054;52.062;10.010;2023-04-03T05:15:32;-1.00;99.90
59282;DHT22;45054;52.062;10.010;2023-04-03T05:17:58;-1.00;99.90
59282;DHT22;45054;52.062;10.010;2023-04-03T05:20:23;-1.00;99.90
59282;DHT22;45054;52.062;10.010;2023-04-03T05:22:49;-0.90;99.90
59282;DHT22;45054;52.062;10.010;2023-04-03T05:25:14;-0.80;99.90
59282;DHT22;45054;52.062;10.010;2023-04-03T05:27:40;-0.90;99.90
59282;DHT22;45054;52.062;10.010;2023-04-03T05:30:07;-0.80;99.90
59282;DHT22;45054;52.062;10.010;2023-04-03T05:32:33;-0.90;99.90
59282;DHT22;45054;52.062;10.010;2023-04-03T05:34:58;-0.90;99.90
59282;DHT22;45054;52.062;10.010;2023-04-03T05:37:24;-0.90;99.90
59282;DHT22;45054;52.062;10.010;2023-04-03T05:39:49;-0.90;99.90
59282;DHT22;45054;52.062;10.010;2023-04-03T05:42:15;-0.80;99.90
59282;DHT22;45054;52.062;10.010;2023-04-03T05:44:40;-0.80;99.90
59282;DHT22;45054;52.062;10.010;2023-04-03T05:47:07;-0.70;99.90
59282;DHT22;45054;52.062;10.010;2023-04-03T05:49:32;-0.70;99.90
59282;DHT22;45054;52.062;10.010;2023-04-03T05:51:58;-0.60;99.90
59282;DHT22;45054;52.062;10.010;2023-04-03T05:54:24;-0.60;99.90
59282;DHT22;45054;52.062;10.010;2023-04-03T05:56:49;-0.60;99.90
59282;DHT22;45054;52.062;10.010;2023-04-03T05:59:15;-0.50;99.90
59282;DHT22;45054;52.062;10.010;2023-04-03T06:01:41;-0.50;99.90
59282;DHT22;45054;52.062;10.010;2023-04-03T06:04:07;-0.50;99.90
59282;DHT22;45054;52.062;10.010;2023-04-03T06:06:42;-0.50;99.90
59282;DHT22;45054;52.062;10.010;2023-04-03T06:09:08;-0.50;99.90
59282;DHT22;45054;52.062;10.010;2023-04-03T06:11:33;-0.50;99.90
59282;DHT22;45054;52.062;10.010;2023-04-03T06:13:59;-0.50;99.90
59282;DHT22;45054;52.062;10.010;2023-04-03T06:16:24;-0.40;99.90
59282;DHT22;45054;52.062;10.010;2023-04-03T06:18:52;-0.50;99.90
59282;DHT22;45054;52.062;10.010;2023-04-03T06:21:19;-0.40;99.90
59282;DHT22;45054;52.062;10.010;2023-04-03T06:23:44;-0.40;99.90
59282;DHT22;45054;52.062;10.010;2023-04-03T06:26:10;-0.40;99.90
59282;DHT22;45054;52.062;10.010;2023-04-03T06:28:35;-0.40;99.90
59282;DHT22;45054;52.062;10.010;2023-04-03T06:31:01;-0.30;99.90
59282;DHT22;45054;52.062;10.010;2023-04-03T06:33:26;-0.30;99.90
59282;DHT22;45054;52.062;10.010;2023-04-03T06:35:55;-0.20;99.90
59282;DHT22;45054;52.062;10.010;2023-04-03T06:38:22;-0.20;99.90
59282;DHT22;45054;52.062;10.010;2023-04-03T06:40:47;-0.20;99.90
59282;DHT22;45054;52.062;10.010;2023-04-03T06:43:14;-0.10;99.90
59282;DHT22;45054;52.062;10.010;2023-04-03T06:45:40;-0.10;99.90
59282;DHT22;45054;52.062;10.010;2023-04-03T06:48:05;-0.10;99.90
59282;DHT22;45054;52.062;10.010;2023-04-03T06:50:31;-0.10;99.90
59282;DHT22;45054;52.062;10.010;2023-04-03T06:52:56;0.00;99.90
59282;DHT22;45054;52.062;10.010;2023-04-03T06:55:23;0.10;99.90
59282;DHT22;45054;52.062;10.010;2023-04-03T06:57:49;0.20;99.90
59282;DHT22;45054;52.062;10.010;2023-04-03T07:00:15;0.20;99.90
59282;DHT22;45054;52.062;10.010;2023-04-03T07:02:40;0.30;99.90
59282;DHT22;45054;52.062;10.010;2023-04-03T07:05:06;0.40;99.90
59282;DHT22;45054;52.062;10.010;2023-04-03T07:07:32;0.40;99.90
59282;DHT22;45054;52.062;10.010;2023-04-03T07:09:57;0.50;99.90
59282;DHT22;45054;52.062;10.010;2023-04-03T07:12:24;0.50;99.90
59282;DHT22;45054;52.062;10.010;2023-04-03T07:14:49;0.50;99.90
59282;DHT22;45054;52.062;10.010;2023-04-03T07:17:15;0.70;99.90
59282;DHT22;45054;52.062;10.010;2023-04-03T07:19:40;0.70;99.90
59282;DHT22;45054;52.062;10.010;2023-04-03T07:22:07;0.80;99.90
59282;DHT22;45054;52.062;10.010;2023-04-03T07:24:32;0.90;99.90
59282;DHT22;45054;52.062;10.010;2023-04-03T07:26:58;1.00;99.90
59282;DHT22;45054;52.062;10.010;2023-04-03T07:29:25;1.10;99.90
59282;DHT22;45054;52.062;10.010;2023-04-03T07:31:50;1.20;99.90
59282;DHT22;45054;52.062;10.010;2023-04-03T07:34:16;1.20;99.90
59282;DHT22;45054;52.062;10.010;2023-04-03T07:36:41;1.30;99.90
59282;DHT22;45054;52.062;10.010;2023-04-03T07:39:06;1.30;99.90
59282;DHT22;45054;52.062;10.010;2023-04-03T07:41:32;1.30;99.90
59282;DHT22;45054;52.062;10.010;2023-04-03T07:43:57;1.40;99.90
59282;DHT22;45054;52.062;10.010;2023-04-03T07:46:24;1.40;99.90
59282;DHT22;45054;52.062;10.010;2023-04-03T07:48:50;1.50;99.90
59282;DHT22;45054;52.062;10.010;2023-04-03T07:51:15;1.60;99.90
59282;DHT22;45054;52.062;10.010;2023-04-03T07:53:40;1.70;99.90
59282;DHT22;45054;52.062;10.010;2023-04-03T07:56:06;1.70;99.90
59282;DHT22;45054;52.062;10.010;2023-04-03T07:58:32;1.80;99.90
59282;DHT22;45054;52.062;10.010;2023-04-03T08:00:57;1.90;99.90
59282;DHT22;45054;52.062;10.010;2023-04-03T08:03:24;1.90;99.90
59282;DHT22;45054;52.062;10.010;2023-04-03T08:05:49;2.10;99.90
59282;DHT22;45054;52.062;10.010;2023-04-03T08:08:16;2.20;99.90
59282;DHT22;45054;52.062;10.010;2023-04-03T08:10:42;2.30;99.90
59282;DHT22;45054;52.062;10.010;2023-04-03T08:13:07;2.30;99.90
59282;DHT22;45054;52.062;10.010;2023-04-03T08:15:33;2.50;99.90
59282;DHT22;45054;52.062;10.010;2023-04-03T08:17:59;2.50;99.90
59282;DHT22;45054;52.062;10.010;2023-04-03T08:20:25;2.50;99.90
59282;DHT22;45054;52.062;10.010;2023-04-03T08:22:51;2.50;99.90
59282;DHT22;45054;52.062;10.010;2023-04-03T08:25:17;2.50;99.90
59282;DHT22;45054;52.062;10.010;2023-04-03T08:27:42;2.70;99.90
59282;DHT22;45054;52.062;10.010;2023-04-03T08:30:08;2.90;99.90
59282;DHT22;45054;52.062;10.010;2023-04-03T08:32:34;3.00;99.90
59282;DHT22;45054;52.062;10.010;2023-04-03T08:35:00;2.90;99.90
59282;DHT22;45054;52.062;10.010;2023-04-03T08:37:26;2.90;99.90
59282;DHT22;45054;52.062;10.010;2023-04-03T08:39:52;2.90;99.90
59282;DHT22;45054;52.062;10.010;2023-04-03T08:42:19;2.90;99.90
59282;DHT22;45054;52.062;10.010;2023-04-03T08:44:52;3.00;99.90
59282;DHT22;45054;52.062;10.010;2023-04-03T08:47:22;3.10;99.90
59282;DHT22;45054;52.062;10.010;2023-04-03T08:49:48;3.30;99.90
59282;DHT22;45054;52.062;10.010;2023-04-03T08:52:15;3.40;99.90
59282;DHT22;45054;52.062;10.010;2023-04-03T08:54:47;3.50;99.90
59282;DHT22;45054;52.062;10.010;2023-04-03T08:57:13;3.70;99.90
59282;DHT22;45054;52.062;10.010;2023-04-03T08:59:39;3.80;99.90
59282;DHT22;45054;52.062;10.010;2023-04-03T09:02:11;4.00;99.90
59282;DHT22;45054;52.062;10.010;2023-04-03T09:04:37;4.10;99.90
59282;DHT22;45054;52.062;10.010;2023-04-03T09:07:03;4.20;99.90
59282;DHT22;45054;52.062;10.010;2023-04-03T09:09:31;4.30;99.90
59282;DHT22;45054;52.062;10.010;2023-04-03T09:12:00;4.40;99.90
59282;DHT22;45054;52.062;10.010;2023-04-03T09:14:29;4.40;99.90
59282;DHT22;45054;52.062;10.010;2023-04-03T09:16:58;4.50;99.90
59282;DHT22;45054;52.062;10.010;2023-04-03T09:19:28;4.50;99.90
59282;DHT22;45054;52.062;10.010;2023-04-03T09:21:58;4.40;99.90
59282;DHT22;45054;52.062;10.010;2023-04-03T09:24:25;4.30;99.90
59282;DHT22;45054;52.062;10.010;2023-04-03T09:26:53;4.30;99.90
59282;DHT22;45054;52.062;10.010;2023-04-03T09:29:20;4.40;99.90
59282;DHT22;45054;52.062;10.010;2023-04-03T09:31:47;4.50;99.90
59282;DHT22;45054;52.062;10.010;2023-04-03T09:34:15;4.60;99.90
59282;DHT22;45054;52.062;10.010;2023-04-03T09:36:43;4.60;99.90
59282;DHT22;45054;52.062;10.010;2023-04-03T09:39:11;4.70;99.90
59282;DHT22;45054;52.062;10.010;2023-04-03T09:41:36;4.60;99.90
59282;DHT22;45054;52.062;10.010;2023-04-03T09:44:02;4.70;99.90
59282;DHT22;45054;52.062;10.010;2023-04-03T09:46:33;4.70;99.90
59282;DHT22;45054;52.062;10.010;2023-04-03T09:48:59;4.70;99.90
59282;DHT22;45054;52.062;10.010;2023-04-03T09:51:25;4.80;99.90
59282;DHT22;45054;52.062;10.010;2023-04-03T09:53:50;4.90;99.90
59282;DHT22;45054;52.062;10.010;2023-04-03T09:56:20;5.00;99.90
59282;DHT22;45054;52.062;10.010;2023-04-03T09:58:46;5.10;99.90
59282;DHT22;45054;52.062;10.010;2023-04-03T10:01:20;5.20;99.90
59282;DHT22;45054;52.062;10.010;2023-04-03T10:03:47;5.20;99.90
59282;DHT22;45054;52.062;10.010;2023-04-03T10:06:28;5.40;99.90
59282;DHT22;45054;52.062;10.010;2023-04-03T10:08:58;5.40;99.90
59282;DHT22;45054;52.062;10.010;2023-04-03T10:11:23;5.40;99.90
59282;DHT22;45054;52.062;10.010;2023-04-03T10:13:49;5.40;99.90
59282;DHT22;45054;52.062;10.010;2023-04-03T10:16:16;5.60;99.90
59282;DHT22;45054;52.062;10.010;2023-04-03T10:18:44;5.80;99.90
59282;DHT22;45054;52.062;10.010;2023-04-03T10:21:13;6.20;99.90
59282;DHT22;45054;52.062;10.010;2023-04-03T10:23:41;6.50;99.90
59282;DHT22;45054;52.062;10.010;2023-04-03T10:26:11;6.50;99.90
59282;DHT22;45054;52.062;10.010;2023-04-03T10:28:40;6.80;99.90
59282;DHT22;45054;52.062;10.010;2023-04-03T10:31:09;6.90;99.90
59282;DHT22;45054;52.062;10.010;2023-04-03T10:33:39;7.10;99.90
59282;DHT22;45054;52.062;10.010;2023-04-03T10:36:11;7.20;99.90
59282;DHT22;45054;52.062;10.010;2023-04-03T10:38:41;7.10;99.90
59282;DHT22;45054;52.062;10.010;2023-04-03T10:41:09;7.10;99.90
59282;DHT22;45054;52.062;10.010;2023-04-03T10:43:38;6.90;99.90
59282;DHT22;45054;52.062;10.010;2023-04-03T10:46:06;7.00;99.90
59282;DHT22;45054;52.062;10.010;2023-04-03T10:51:22;7.00;99.90
59282;DHT22;45054;52.062;10.010;2023-04-03T10:53:52;6.90;99.90
59282;DHT22;45054;52.062;10.010;2023-04-03T10:56:19;6.90;99.90
59282;DHT22;45054;52.062;10.010;2023-04-03T10:58:48;7.00;99.90
59282;DHT22;45054;52.062;10.010;2023-04-03T11:01:16;7.00;99.90
59282;DHT22;45054;52.062;10.010;2023-04-03T11:03:43;6.80;99.90
59282;DHT22;45054;52.062;10.010;2023-04-03T11:06:10;6.50;99.90
59282;DHT22;45054;52.062;10.010;2023-04-03T11:08:37;6.50;99.90
59282;DHT22;45054;52.062;10.010;2023-04-03T11:11:05;6.30;99.90
59282;DHT22;45054;52.062;10.010;2023-04-03T11:13:33;6.20;99.90
59282;DHT22;45054;52.062;10.010;2023-04-03T11:15:59;6.00;99.90
59282;DHT22;45054;52.062;10.010;2023-04-03T11:18:26;5.80;99.90
59282;DHT22;45054;52.062;10.010;2023-04-03T11:20:53;5.80;99.90
59282;DHT22;45054;52.062;10.010;2023-04-03T11:23:23;5.80;99.90
59282;DHT22;45054;52.062;10.010;2023-04-03T11:25:50;5.80;99.90
59282;DHT22;45054;52.062;10.010;2023-04-03T11:28:18;5.70;99.90
59282;DHT22;45054;52.062;10.010;2023-04-03T11:30:44;5.60;99.90
59282;DHT22;45054;52.062;10.010;2023-04-03T11:33:17;5.70;99.90
59282;DHT22;45054;52.062;10.010;2023-04-03T11:35:46;5.80;99.90
59282;DHT22;45054;52.062;10.010;2023-04-03T11:38:14;6.00;99.90
59282;DHT22;45054;52.062;10.010;2023-04-03T11:40:42;6.20;99.90
59282;DHT22;45054;52.062;10.010;2023-04-03T11:43:21;6.40;99.90
59282;DHT22;45054;52.062;10.010;2023-04-03T11:45:54;6.40;99.90
59282;DHT22;45054;52.062;10.010;2023-04-03T11:51:03;6.40;99.90
59282;DHT22;45054;52.062;10.010;2023-04-03T11:53:49;6.60;99.90
59282;DHT22;45054;52.062;10.010;2023-04-03T11:56:27;6.80;99.90
59282;DHT22;45054;52.062;10.010;2023-04-03T12:01:44;7.10;99.90
59282;DHT22;45054;52.062;10.010;2023-04-03T12:04:10;7.00;99.90
59282;DHT22;45054;52.062;10.010;2023-04-03T12:09:24;7.20;99.90
59282;DHT22;45054;52.062;10.010;2023-04-03T12:11:49;7.30;99.90
59282;DHT22;45054;52.062;10.010;2023-04-03T12:14:16;7.10;99.90
59282;DHT22;45054;52.062;10.010;2023-04-03T12:16:43;7.10;99.90
59282;DHT22;45054;52.062;10.010;2023-04-03T12:24:50;7.10;99.90
59282;DHT22;45054;52.062;10.010;2023-04-03T12:27:26;7.00;99.90
59282;DHT22;45054;52.062;10.010;2023-04-03T12:29:54;6.90;99.90
59282;DHT22;45054;52.062;10.010;2023-04-03T12:32:24;6.80;99.90
59282;DHT22;45054;52.062;10.010;2023-04-03T12:35:04;6.80;99.90
59282;DHT22;45054;52.062;10.010;2023-04-03T12:37:37;6.90;99.90
59282;DHT22;45054;52.062;10.010;2023-04-03T12:40:10;7.30;99.90
59282;DHT22;45054;52.062;10.010;2023-04-03T12:42:43;7.40;99.90
59282;DHT22;45054;52.062;10.010;2023-04-03T12:45:15;7.50;99.90
59282;DHT22;45054;52.062;10.010;2023-04-03T12:47:44;7.60;99.90
59282;DHT22;45054;52.062;10.010;2023-04-03T12:50:16;7.80;99.90
59282;DHT22;45054;52.062;10.010;2023-04-03T12:52:44;8.10;99.90
59282;DHT22;45054;52.062;10.010;2023-04-03T12:57:55;8.60;99.90
59282;DHT22;45054;52.062;10.010;2023-04-03T13:00:22;8.70;99.90
59282;DHT22;45054;52.062;10.010;2023-04-03T13:02:51;8.40;99.90
59282;DHT22;45054;52.062;10.010;2023-04-03T13:05:18;8.20;99.90
59282;DHT22;45054;52.062;10.010;2023-04-03T13:07:43;8.00;99.90
59282;DHT22;45054;52.062;10.010;2023-04-03T13:10:14;7.70;99.90
59282;DHT22;45054;52.062;10.010;2023-04-03T13:12:45;7.70;99.90
59282;DHT22;45054;52.062;10.010;2023-04-03T13:15:14;7.90;99.90
59282;DHT22;45054;52.062;10.010;2023-04-03T13:17:40;8.10;99.90
59282;DHT22;45054;52.062;10.010;2023-04-03T13:20:10;8.00;99.90
59282;DHT22;45054;52.062;10.010;2023-04-03T13:22:35;7.80;99.90
59282;DHT22;45054;52.062;10.010;2023-04-03T13:25:03;7.40;99.90
59282;DHT22;45054;52.062;10.010;2023-04-03T13:27:30;7.20;99.90
59282;DHT22;45054;52.062;10.010;2023-04-03T13:29:57;7.30;99.90
59282;DHT22;45054;52.062;10.010;2023-04-03T13:32:25;7.40;99.90
59282;DHT22;45054;52.062;10.010;2023-04-03T13:34:52;7.70;99.90
59282;DHT22;45054;52.062;10.010;2023-04-03T13:37:21;7.90;99.90
59282;DHT22;45054;52.062;10.010;2023-04-03T13:39:56;8.00;99.90
59282;DHT22;45054;52.062;10.010;2023-04-03T13:42:23;8.10;99.90
59282;DHT22;45054;52.062;10.010;2023-04-03T13:44:48;8.20;99.90
59282;DHT22;45054;52.062;10.010;2023-04-03T13:47:15;8.10;99.90
59282;DHT22;45054;52.062;10.010;2023-04-03T13:49:43;7.90;99.90
59282;DHT22;45054;52.062;10.010;2023-04-03T13:52:21;8.00;99.90
59282;DHT22;45054;52.062;10.010;2023-04-03T13:54:47;8.00;99.90
59282;DHT22;45054;52.062;10.010;2023-04-03T13:57:16;7.80;99.90
59282;DHT22;45054;52.062;10.010;2023-04-03T13:59:42;7.50;99.90
59282;DHT22;45054;52.062;10.010;2023-04-03T14:02:13;7.20;99.90
59282;DHT22;45054;52.062;10.010;2023-04-03T14:04:47;7.30;99.90
59282;DHT22;45054;52.062;10.010;2023-04-03T14:07:13;7.60;99.90
59282;DHT22;45054;52.062;10.010;2023-04-03T14:09:39;7.80;99.90
59282;DHT22;45054;52.062;10.010;2023-04-03T14:12:05;8.00;99.90
59282;DHT22;45054;52.062;10.010;2023-04-03T14:14:32;8.00;99.90
59282;DHT22;45054;52.062;10.010;2023-04-03T14:16:59;7.80;99.90
59282;DHT22;45054;52.062;10.010;2023-04-03T14:19:25;7.50;99.90
59282;DHT22;45054;52.062;10.010;2023-04-03T14:21:53;7.10;99.90
59282;DHT22;45054;52.062;10.010;2023-04-03T14:24:19;6.90;99.90
59282;DHT22;45054;52.062;10.010;2023-04-03T14:26:44;7.10;99.90
59282;DHT22;45054;52.062;10.010;2023-04-03T14:29:11;7.50;99.90
59282;DHT22;45054;52.062;10.010;2023-04-03T14:31:36;7.70;99.90
59282;DHT22;45054;52.062;10.010;2023-04-03T14:34:02;7.80;99.90
59282;DHT22;45054;52.062;10.010;2023-04-03T14:36:28;8.10;99.90
59282;DHT22;45054;52.062;10.010;2023-04-03T14:38:55;8.60;99.90
59282;DHT22;45054;52.062;10.010;2023-04-03T14:41:21;9.20;99.90
59282;DHT22;45054;52.062;10.010;2023-04-03T14:43:47;9.90;99.90
59282;DHT22;45054;52.062;10.010;2023-04-03T14:46:14;9.70;99.90
59282;DHT22;45054;52.062;10.010;2023-04-03T14:48:39;9.10;99.90
59282;DHT22;45054;52.062;10.010;2023-04-03T14:51:05;8.90;99.90
59282;DHT22;45054;52.062;10.010;2023-04-03T14:53:30;8.80;99.90
59282;DHT22;45054;52.062;10.010;2023-04-03T14:55:57;9.10;99.90
59282;DHT22;45054;52.062;10.010;2023-04-03T14:58:23;10.40;99.90
59282;DHT22;45054;52.062;10.010;2023-04-03T15:00:48;11.80;99.90
59282;DHT22;45054;52.062;10.010;2023-04-03T15:03:14;12.20;99.90
59282;DHT22;45054;52.062;10.010;2023-04-03T15:05:40;10.70;99.90
59282;DHT22;45054;52.062;10.010;2023-04-03T15:08:08;9.50;99.90
59282;DHT22;45054;52.062;10.010;2023-04-03T15:10:37;8.90;99.90
59282;DHT22;45054;52.062;10.010;2023-04-03T15:13:04;8.50;99.90
59282;DHT22;45054;52.062;10.010;2023-04-03T15:15:29;8.30;99.90
59282;DHT22;45054;52.062;10.010;2023-04-03T15:17:55;8.30;99.90
59282;DHT22;45054;52.062;10.010;2023-04-03T15:20:21;8.10;99.90
59282;DHT22;45054;52.062;10.010;2023-04-03T15:22:47;8.20;99.90
59282;DHT22;45054;52.062;10.010;2023-04-03T15:25:12;8.10;99.90
59282;DHT22;45054;52.062;10.010;2023-04-03T15:27:38;9.00;99.90
59282;DHT22;45054;52.062;10.010;2023-04-03T15:30:06;10.70;99.90
59282;DHT22;45054;52.062;10.010;2023-04-03T15:32:32;11.30;99.90
59282;DHT22;45054;52.062;10.010;2023-04-03T15:34:57;11.00;99.90
59282;DHT22;45054;52.062;10.010;2023-04-03T15:37:23;10.40;99.90
59282;DHT22;45054;52.062;10.010;2023-04-03T15:39:48;9.90;99.90
59282;DHT22;45054;52.062;10.010;2023-04-03T15:42:14;9.50;99.90
59282;DHT22;45054;52.062;10.010;2023-04-03T15:44:39;9.30;99.90
59282;DHT22;45054;52.062;10.010;2023-04-03T15:47:06;9.00;99.90